Time;durP1;ratioP1;P1;durP2;ratioP2;P2;SDS_P1;SDS_P2;PMS_P1;PMS_P2;Temp;Humidity;BMP_temperature;BMP_pressure;BME280_temperature;BME280_humidity;BME280_pressure;Samples;Min_cycle;Max_cycle;Signal;HPM_P1;HPM_P2
2022/01/17 00:03:05;;;;;;;55.13;27.23;;;;;;;-3.10;100.00;95299.97;10325162;28;20470;-71
2022/01/17 00:08:05;;;;;;;66.47;24.95;;;;;;;-3.11;100.00;95299.16;10325573;28;20014;-75
2022/01/17 00:13:05;;;;;;;61.30;30.42;;;;;;;-3.18;100.00;95295.59;10341861;28;20037;-76
2022/01/17 00:23:14;;;;;;;51.28;24.80;;;;;;;-3.39;100.00;95296.22;10366957;28;20168;-77
2022/01/17 00:28:14;;;;;;;58.70;26.17;;;;;;;-3.36;100.00;95295.88;10364522;28;20091;-71
2022/01/17 00:33:15;;;;;;;59.97;26.40;;;;;;;-3.30;100.00;95295.16;10365177;28;20098;-77
2022/01/17 00:38:15;;;;;;;67.90;26.15;;;;;;;-3.33;100.00;95308.66;10364552;28;20050;-71
2022/01/17 00:43:16;;;;;;;55.13;24.73;;;;;;;-3.64;100.00;95312.09;10364941;28;20108;-71
2022/01/17 00:48:16;;;;;;;66.38;33.65;;;;;;;-3.46;100.00;95303.97;10364490;28;20021;-71
2022/01/17 00:53:17;;;;;;;58.63;30.38;;;;;;;-3.54;100.00;95306.63;10365032;28;20022;-72
2022/01/17 00:58:17;;;;;;;55.65;29.50;;;;;;;-3.80;100.00;95296.38;10366425;28;20022;-72
2022/01/17 01:03:18;;;;;;;60.33;27.35;;;;;;;-3.61;100.00;95301.25;10367549;28;20520;-71
2022/01/17 01:08:18;;;;;;;58.67;24.50;;;;;;;-3.66;100.00;95290.41;10366940;28;20029;-79
2022/01/17 01:13:23;;;;;;;50.60;23.65;;;;;;;-3.71;100.00;95291.91;10372917;28;20029;-78
2022/01/17 01:29:10;;;;;;;49.20;20.90;;;;;;;-3.72;100.00;95270.09;10364342;28;20097;-71
2022/01/17 01:34:11;;;;;;;45.35;22.83;;;;;;;-3.67;100.00;95267.78;10362806;28;20029;-76
2022/01/17 01:39:12;;;;;;;48.60;22.20;;;;;;;-3.79;100.00;95271.78;10361800;28;20483;-77
2022/01/17 01:44:23;;;;;;;45.78;22.35;;;;;;;-3.63;100.00;95276.13;10361683;28;20087;-71
2022/01/17 01:49:24;;;;;;;49.97;21.35;;;;;;;-3.59;100.00;95271.34;10361678;28;20018;-75
2022/01/17 01:54:25;;;;;;;39.05;20.77;;;;;;;-3.65;100.00;95271.03;10361284;28;20113;-74
2022/01/17 01:59:25;;;;;;;50.13;24.90;;;;;;;-3.57;100.00;95258.84;10361535;28;20599;-72
2022/01/17 02:04:26;;;;;;;43.08;19.67;;;;;;;-3.66;100.00;95258.91;10361482;28;20117;-77
2022/01/17 02:09:26;;;;;;;40.78;21.58;;;;;;;-4.02;100.00;95250.69;10338653;28;20467;-71
2022/01/17 02:14:27;;;;;;;50.78;23.92;;;;;;;-3.94;100.00;95237.53;10320416;28;20113;-74
2022/01/17 02:19:29;;;;;;;53.85;26.13;;;;;;;-3.89;100.00;95229.97;10336577;28;20030;-75
2022/01/17 02:24:29;;;;;;;38.58;20.70;;;;;;;-3.89;100.00;95240.47;10336238;28;20044;-75
2022/01/17 02:29:30;;;;;;;47.33;21.90;;;;;;;-3.98;100.00;95242.31;10336549;28;20034;-72
2022/01/17 02:34:30;;;;;;;38.63;21.08;;;;;;;-4.06;100.00;95234.47;10320936;28;20023;-77
2022/01/17 02:39:31;;;;;;;45.97;23.92;;;;;;;-3.82;100.00;95237.97;10319845;28;20116;-71
2022/01/17 02:44:32;;;;;;;52.33;21.83;;;;;;;-3.73;100.00;95234.31;10319764;28;20473;-72
2022/01/17 02:49:32;;;;;;;44.92;21.92;;;;;;;-3.82;100.00;95249.28;10319430;28;20023;-75
2022/01/17 02:54:33;;;;;;;35.40;20.88;;;;;;;-3.72;100.00;95229.91;10320284;28;20036;-74
2022/01/17 02:59:33;;;;;;;42.50;21.95;;;;;;;-3.60;100.00;95231.13;10321187;28;20407;-74
2022/01/17 03:04:34;;;;;;;36.53;20.20;;;;;;;-3.53;100.00;95231.25;10319302;28;20045;-71
2022/01/17 03:09:43;;;;;;;46.17;22.02;;;;;;;-3.65;100.00;95236.91;10319157;28;20479;-75
2022/01/17 03:14:44;;;;;;;37.70;19.13;;;;;;;-3.66;100.00;95227.38;10335308;28;20448;-72
2022/01/17 03:19:45;;;;;;;48.78;22.08;;;;;;;-3.81;100.00;95218.59;10319270;28;20089;-74
2022/01/17 03:24:45;;;;;;;41.88;20.80;;;;;;;-3.66;100.00;95218.69;10334409;28;20034;-76
2022/01/17 03:29:45;;;;;;;40.30;18.80;;;;;;;-3.64;100.00;95222.78;10320316;28;20030;-75
2022/01/17 03:34:46;;;;;;;44.63;22.50;;;;;;;-3.57;100.00;95225.53;10342929;28;20038;-75
2022/01/17 03:39:46;;;;;;;43.20;19.60;;;;;;;-3.53;100.00;95234.72;10325785;28;20542;-75
2022/01/17 03:44:47;;;;;;;36.90;18.90;;;;;;;-3.61;100.00;95240.00;10310486;28;20113;-71
2022/01/17 03:49:47;;;;;;;36.58;19.63;;;;;;;-3.59;100.00;95237.22;10326102;28;20485;-76
2022/01/17 03:54:48;;;;;;;37.33;20.10;;;;;;;-3.49;100.00;95248.31;10342279;28;20081;-72
2022/01/17 03:59:48;;;;;;;36.67;17.85;;;;;;;-3.69;100.00;95245.31;10327358;28;20050;-71
2022/01/17 04:04:49;;;;;;;41.97;16.65;;;;;;;-3.70;100.00;95247.09;10325759;28;20412;-76
2022/01/17 04:09:49;;;;;;;42.50;17.13;;;;;;;-3.65;100.00;95242.16;10340899;28;20028;-72
2022/01/17 04:14:54;;;;;;;34.53;18.70;;;;;;;-3.90;100.00;95257.19;10325004;28;20026;-71
2022/01/17 04:20:04;;;;;;;39.63;18.52;;;;;;;-3.88;100.00;95257.03;10325979;28;20790;-75
2022/01/17 04:25:06;;;;;;;36.45;18.23;;;;;;;-3.95;100.00;95255.09;10324513;28;20030;-71
2022/01/17 04:30:07;;;;;;;40.72;19.67;;;;;;;-3.94;100.00;95253.28;10340631;28;20377;-71
2022/01/17 04:35:10;;;;;;;38.35;19.25;;;;;;;-3.95;100.00;95256.88;10324642;28;20516;-70
2022/01/17 04:40:11;;;;;;;41.45;21.35;;;;;;;-3.87;100.00;95267.34;10323535;28;20050;-70
2022/01/17 04:45:13;;;;;;;45.72;20.65;;;;;;;-3.99;100.00;95256.41;10324184;28;20428;-71
2022/01/17 04:50:19;;;;;;;48.60;20.52;;;;;;;-4.03;100.00;95242.00;10307575;28;20030;-71
2022/01/17 04:55:20;;;;;;;38.50;17.45;;;;;;;-4.09;100.00;95229.53;10341616;28;20025;-79
2022/01/17 05:00:22;;;;;;;42.03;17.77;;;;;;;-4.11;100.00;95231.53;10364268;28;20030;-78
2022/01/17 05:05:23;;;;;;;42.63;20.95;;;;;;;-4.04;100.00;95232.47;10363752;28;20499;-75
2022/01/17 05:10:23;;;;;;;32.08;19.15;;;;;;;-4.02;100.00;95235.75;10342717;28;20026;-79
2022/01/17 05:20:25;;;;;;;36.47;17.35;;;;;;;-3.69;100.00;95230.34;10334329;28;20130;-74
2022/01/17 05:25:25;;;;;;;26.02;10.95;;;;;;;-3.55;100.00;95241.13;10354423;28;20045;-78
2022/01/17 05:30:26;;;;;;;27.15;15.50;;;;;;;-3.43;100.00;95242.38;10362349;28;20022;-80
2022/01/17 05:35:27;;;;;;;22.90;10.30;;;;;;;-3.36;100.00;95224.91;10366897;28;20184;-74
2022/01/17 05:40:28;;;;;;;26.20;11.43;;;;;;;-3.26;100.00;95233.38;10358506;28;20061;-73
2022/01/17 05:45:28;;;;;;;41.35;23.20;;;;;;;-3.40;100.00;95242.03;10321255;28;20052;-79
2022/01/17 05:50:29;;;;;;;27.35;15.05;;;;;;;-3.43;100.00;95245.00;10321438;28;20018;-76
2022/01/17 05:55:29;;;;;;;28.20;12.40;;;;;;;-3.55;100.00;95246.38;10320737;28;20053;-74
2022/01/17 06:00:30;;;;;;;26.27;14.55;;;;;;;-3.55;100.00;95276.09;10322492;28;20041;-75
2022/01/17 06:05:32;;;;;;;39.33;15.75;;;;;;;-3.49;100.00;95274.56;10320929;28;20023;-78
2022/01/17 06:10:33;;;;;;;43.92;17.58;;;;;;;-3.72;100.00;95277.97;10321985;28;20117;-82
2022/01/17 06:15:34;;;;;;;40.83;15.77;;;;;;;-3.55;100.00;95262.13;10336434;28;20326;-79
2022/01/17 06:20:34;;;;;;;32.00;16.92;;;;;;;-3.53;100.00;95275.91;10336408;28;20038;-79
2022/01/17 06:25:35;;;;;;;33.55;18.42;;;;;;;-3.57;100.00;95280.72;10320115;28;20444;-82
2022/01/17 06:30:35;;;;;;;45.53;18.77;;;;;;;-3.38;100.00;95262.88;10320346;28;20014;-75
2022/01/17 06:35:37;;;;;;;37.45;18.70;;;;;;;-3.36;100.00;95269.59;10319394;28;20121;-78
2022/01/17 06:40:37;;;;;;;49.88;20.30;;;;;;;-3.19;100.00;95266.88;10319796;28;20116;-79
2022/01/17 06:45:38;;;;;;;42.90;15.32;;;;;;;-3.06;100.00;95272.34;10335465;28;20114;-73
2022/01/17 06:50:39;;;;;;;33.15;17.02;;;;;;;-2.93;100.00;95285.75;10326932;28;20030;-74
2022/01/17 06:55:40;;;;;;;35.95;16.58;;;;;;;-2.73;100.00;95281.81;10335385;28;20026;-78
2022/01/17 07:00:40;;;;;;;46.17;17.45;;;;;;;-2.56;100.00;95267.53;10301978;28;20026;-79
2022/01/17 07:05:41;;;;;;;48.10;16.75;;;;;;;-2.42;100.00;95271.19;10302540;28;20511;-78
2022/01/17 07:10:42;;;;;;;47.78;19.45;;;;;;;-2.37;100.00;95271.47;10319313;28;20033;-77
2022/01/17 07:15:43;;;;;;;34.47;16.25;;;;;;;-2.28;100.00;95283.53;10318650;28;20581;-78
2022/01/17 07:20:44;;;;;;;29.25;16.45;;;;;;;-2.16;100.00;95291.84;10335395;28;20517;-78
2022/01/17 07:25:44;;;;;;;34.38;17.77;;;;;;;-2.05;100.00;95303.75;10334807;28;20022;-76
2022/01/17 07:30:45;;;;;;;41.15;17.35;;;;;;;-1.97;100.00;95311.53;10334347;28;20108;-78
2022/01/17 07:35:48;;;;;;;45.20;19.90;;;;;;;-1.84;100.00;95289.84;10334997;28;20092;-79
2022/01/17 07:40:48;;;;;;;53.05;21.08;;;;;;;-1.77;100.00;95274.16;10318247;28;20054;-81
2022/01/17 07:46:03;;;;;;;48.75;20.02;;;;;;;-1.52;100.00;95281.72;10317671;28;20033;-75
2022/01/17 07:51:04;;;;;;;48.95;24.27;;;;;;;-1.14;100.00;95292.94;10334011;28;20490;-79
2022/01/17 07:56:05;;;;;;;41.30;19.40;;;;;;;-0.56;100.00;95308.75;10335531;28;20129;-80
2022/01/17 08:01:05;;;;;;;44.80;21.58;;;;;;;0.53;100.00;95359.56;10318166;28;20109;-80
2022/01/17 08:06:06;;;;;;;52.45;21.40;;;;;;;0.77;100.00;95350.31;10317681;28;20134;-78
2022/01/17 08:11:06;;;;;;;61.10;21.23;;;;;;;1.01;100.00;95308.47;10334174;28;20077;-78
2022/01/17 08:16:07;;;;;;;39.60;16.45;;;;;;;1.39;100.00;95265.56;10319508;28;20022;-79
2022/01/17 08:21:08;;;;;;;33.10;11.73;;;;;;;2.08;100.00;95244.97;10325165;28;20504;-76
2022/01/17 08:26:08;;;;;;;29.05;13.50;;;;;;;2.72;95.59;95272.50;10325280;28;20022;-79
2022/01/17 08:31:09;;;;;;;25.98;10.65;;;;;;;3.33;91.73;95344.72;10341953;28;20519;-80
2022/01/17 08:36:11;;;;;;;18.95;6.75;;;;;;;4.03;92.21;95374.97;10324925;28;20026;-80
2022/01/17 08:41:12;;;;;;;9.43;5.53;;;;;;;4.53;78.34;95329.72;10341224;28;20026;-81
2022/01/17 08:46:12;;;;;;;14.35;5.93;;;;;;;4.94;74.72;95316.81;10324718;28;20073;-79
2022/01/17 08:51:13;;;;;;;15.05;6.35;;;;;;;5.69;69.72;95280.13;10339581;28;20034;-75
2022/01/17 08:56:13;;;;;;;17.70;7.03;;;;;;;6.73;61.91;95194.13;10340592;28;20113;-81
2022/01/17 09:01:14;;;;;;;23.10;8.38;;;;;;;7.09;58.34;95218.00;10324038;28;20030;-74
2022/01/17 09:06:15;;;;;;;26.02;8.05;;;;;;;6.98;57.87;95163.59;10349444;28;20389;-82
2022/01/17 09:11:15;;;;;;;23.85;8.48;;;;;;;7.35;56.42;95152.44;10364543;28;20083;-73
2022/01/17 09:16:16;;;;;;;21.45;8.32;;;;;;;7.59;53.87;95155.78;10363837;28;20084;-80
2022/01/17 09:21:17;;;;;;;28.98;8.63;;;;;;;8.12;53.17;95161.66;10363169;28;20026;-82
2022/01/17 09:26:18;;;;;;;29.92;7.80;;;;;;;8.76;48.75;95132.72;10362694;28;20026;-76
2022/01/17 09:31:19;;;;;;;18.90;8.02;;;;;;;8.09;48.30;95169.34;10361905;28;20099;-75
2022/01/17 09:36:21;;;;;;;21.83;6.88;;;;;;;7.43;51.06;95165.41;10362322;28;20152;-82
2022/01/17 09:41:21;;;;;;;15.20;6.68;;;;;;;8.18;50.02;95159.84;10362831;28;20030;-82
2022/01/17 09:46:26;;;;;;;22.05;7.72;;;;;;;8.17;49.73;95168.94;10362075;28;20026;-74
2022/01/17 09:51:51;;;;;;;18.58;7.65;;;;;;;8.09;51.46;95153.28;10345825;28;20030;-76
2022/01/17 09:56:54;;;;;;;19.00;7.68;;;;;;;8.71;50.12;95171.78;10348718;28;20033;-78
2022/01/17 10:01:54;;;;;;;16.05;7.43;;;;;;;8.63;50.13;95169.53;10364422;28;20034;-76
2022/01/17 10:06:57;;;;;;;19.55;8.00;;;;;;;9.12;49.03;95167.94;10361700;28;20502;-80
2022/01/17 10:12:11;;;;;;;24.38;7.47;;;;;;;10.44;46.27;95171.91;10361282;28;20029;-74
2022/01/17 10:17:14;;;;;;;19.60;6.93;;;;;;;11.43;44.51;95188.06;10361828;28;20427;-74
2022/01/17 10:22:26;;;;;;;12.27;4.43;;;;;;;10.73;44.86;95174.16;10360953;28;20022;-81
2022/01/17 10:38:27;;;;;;;7.45;4.20;;;;;;;13.73;39.47;95137.47;10276243;28;20047;-73
2022/01/17 10:43:38;;;;;;;13.18;4.65;;;;;;;14.64;37.71;95134.19;10332934;28;20037;-75
2022/01/17 10:48:45;;;;;;;6.93;3.85;;;;;;;15.48;35.77;95121.94;10362453;28;20029;-74
2022/01/17 10:53:50;;;;;;;7.45;4.28;;;;;;;16.30;34.82;95117.03;10346759;28;20104;-74
2022/01/17 10:59:02;;;;;;;9.23;4.03;;;;;;;16.48;34.12;95123.47;10366113;28;20050;-78
2022/01/17 11:04:08;;;;;;;12.07;4.13;;;;;;;15.31;35.13;95120.56;10359864;28;20029;-73
2022/01/17 11:09:09;;;;;;;8.25;4.43;;;;;;;14.22;36.26;95125.69;10343080;28;20022;-74
2022/01/17 11:14:09;;;;;;;12.38;5.93;;;;;;;11.00;41.50;95120.22;10360426;28;20018;-73
2022/01/17 11:20:03;;;;;;;11.05;5.75;;;;;;;8.93;45.93;95117.34;10342042;28;20037;-73
2022/01/17 11:24:30;;;;;;;10.25;5.30;;;;;;;7.85;50.92;95098.09;10358091;28;20109;-76
2022/01/17 11:29:31;;;;;;;11.57;4.53;;;;;;;8.76;46.72;95085.28;10358755;28;20048;-78
2022/01/17 11:34:31;;;;;;;11.02;4.20;;;;;;;7.75;48.55;95086.47;10342653;28;20029;-78
2022/01/17 11:39:32;;;;;;;9.80;3.83;;;;;;;7.56;50.02;95094.75;10342762;28;20089;-78
2022/01/17 11:44:34;;;;;;;6.35;3.35;;;;;;;9.91;45.19;95088.59;10358523;28;20105;-79
2022/01/17 11:49:40;;;;;;;6.80;2.97;;;;;;;12.11;40.87;95087.34;10342464;28;20119;-76
2022/01/17 11:54:44;;;;;;;9.05;5.32;;;;;;;13.07;37.89;95085.56;10367028;28;20113;-74
2022/01/17 11:59:48;;;;;;;8.73;3.35;;;;;;;13.93;36.06;95041.94;10367994;28;20042;-78
2022/01/17 12:05:07;;;;;;;5.55;2.85;;;;;;;12.98;37.37;95042.19;10360359;28;20042;-74
2022/01/17 12:10:10;;;;;;;6.43;3.03;;;;;;;10.66;40.60;95066.91;10325081;28;20465;-74
2022/01/17 12:15:13;;;;;;;6.00;3.47;;;;;;;9.05;43.85;95071.63;10326369;28;20053;-74
2022/01/17 12:20:17;;;;;;;5.85;3.70;;;;;;;7.93;47.60;95040.69;10341062;28;20031;-80
2022/01/17 12:25:29;;;;;;;7.53;3.95;;;;;;;7.22;49.75;95030.63;10325284;28;20550;-75
2022/01/17 12:30:43;;;;;;;6.80;3.88;;;;;;;6.53;52.09;95012.94;10324439;28;20061;-77
2022/01/17 12:35:46;;;;;;;11.05;4.05;;;;;;;6.35;54.88;95029.97;10341458;28;20436;-77
2022/01/17 12:40:47;;;;;;;11.23;5.10;;;;;;;5.95;55.74;95014.78;10325613;28;20148;-74
2022/01/17 12:45:55;;;;;;;13.43;4.82;;;;;;;5.55;58.04;95034.22;10323992;28;20471;-74
2022/01/17 12:50:57;;;;;;;7.83;4.43;;;;;;;5.30;61.16;95033.44;10307334;28;20125;-75
2022/01/17 12:56:00;;;;;;;8.40;4.90;;;;;;;4.61;67.23;95023.28;10323695;28;20019;-78
2022/01/17 13:01:05;;;;;;;10.45;5.03;;;;;;;4.38;72.71;95008.09;10346382;28;20036;-75
2022/01/17 13:06:08;;;;;;;15.55;5.50;;;;;;;4.53;70.07;95004.19;10363440;28;20251;-78
2022/01/17 13:11:22;;;;;;;7.90;4.45;;;;;;;4.28;70.11;94984.69;10365397;28;20010;-81
2022/01/17 13:16:22;;;;;;;14.27;5.25;;;;;;;4.39;71.11;94963.66;10324742;28;20030;-72
2022/01/17 13:21:23;;;;;;;11.18;4.03;;;;;;;4.44;69.12;94963.78;10322869;28;20511;-74
2022/01/17 13:26:31;;;;;;;9.35;4.38;;;;;;;4.40;69.76;94938.69;10322774;28;20022;-74
2022/01/17 13:31:32;;;;;;;7.88;3.75;;;;;;;4.34;70.72;94939.56;10359185;28;20474;-81
2022/01/17 13:36:36;;;;;;;10.32;4.72;;;;;;;4.29;70.01;94889.72;10372121;28;20065;-83
2022/01/17 13:41:43;;;;;;;7.72;4.85;;;;;;;4.42;70.48;94856.75;10366719;28;20072;-83
2022/01/17 13:47:01;;;;;;;6.22;3.63;;;;;;;4.38;69.28;94860.91;10364724;28;20118;-75
2022/01/17 13:52:03;;;;;;;12.90;4.38;;;;;;;4.35;69.96;94872.81;10363778;28;20034;-72
2022/01/17 13:57:15;;;;;;;9.93;4.93;;;;;;;4.41;71.72;94863.09;10363883;28;20543;-75
2022/01/17 14:02:16;;;;;;;17.63;4.25;;;;;;;4.01;71.13;94859.25;10337240;28;20492;-73
2022/01/17 14:07:25;;;;;;;4.05;2.90;;;;;;;3.79;70.06;94848.34;10322133;28;20117;-72
2022/01/17 14:12:30;;;;;;;7.82;3.55;;;;;;;3.79;70.25;94835.06;10321842;28;20092;-76
2022/01/17 14:17:30;;;;;;;4.25;2.72;;;;;;;3.61;71.08;94827.16;10320553;28;20467;-76
2022/01/17 14:22:31;;;;;;;12.10;4.78;;;;;;;3.68;70.59;94822.56;10336593;28;20080;-75
2022/01/17 14:27:32;;;;;;;5.55;2.75;;;;;;;3.48;71.83;94815.69;10336351;28;20152;-75
2022/01/17 14:32:32;;;;;;;9.07;3.72;;;;;;;3.59;73.59;94806.94;10320259;28;20504;-77
2022/01/17 14:37:33;;;;;;;7.35;3.55;;;;;;;3.55;72.93;94819.06;10336461;28;20093;-74
2022/01/17 14:42:38;;;;;;;6.07;3.85;;;;;;;3.54;73.12;94806.78;10336942;28;20496;-76
2022/01/17 14:47:41;;;;;;;6.70;3.20;;;;;;;3.53;72.79;94820.31;10319263;28;20030;-72
2022/01/17 14:52:42;;;;;;;11.32;3.85;;;;;;;3.48;75.58;94812.22;10350865;28;20029;-76
2022/01/17 15:03:17;;;;;;;11.25;4.60;;;;;;;3.35;75.75;94845.91;10360461;28;20487;-76
2022/01/17 15:08:18;;;;;;;8.27;4.00;;;;;;;3.28;75.41;94820.47;10359021;28;20038;-77
2022/01/17 15:13:18;;;;;;;8.38;4.18;;;;;;;3.19;76.92;94812.00;10358830;28;20037;-74
2022/01/17 15:18:19;;;;;;;6.32;2.97;;;;;;;3.20;74.64;94840.97;10360105;28;20033;-74
2022/01/17 15:23:22;;;;;;;6.75;3.28;;;;;;;3.01;75.73;94839.38;10358401;28;20554;-74
2022/01/17 15:28:22;;;;;;;8.27;3.88;;;;;;;2.96;75.94;94821.47;10345459;28;20030;-77
2022/01/17 15:33:24;;;;;;;5.68;3.78;;;;;;;2.81;76.73;94816.56;10332599;28;20030;-76
2022/01/17 15:38:26;;;;;;;8.25;4.40;;;;;;;2.76;77.26;94828.88;10330889;28;20064;-72
2022/01/17 15:43:26;;;;;;;6.05;2.90;;;;;;;2.73;73.82;94840.72;10332685;28;20107;-78
2022/01/17 15:48:27;;;;;;;5.20;3.00;;;;;;;2.77;75.70;94857.84;10332264;28;20110;-77
2022/01/17 15:53:27;;;;;;;8.68;4.03;;;;;;;2.81;75.89;94855.56;10331066;28;20030;-73
2022/01/17 15:58:28;;;;;;;7.65;5.15;;;;;;;2.85;77.45;94857.53;10331327;28;20030;-76
2022/01/17 16:03:29;;;;;;;11.73;5.22;;;;;;;2.77;76.18;94841.91;10314492;28;20457;-76
2022/01/17 16:08:29;;;;;;;12.50;4.30;;;;;;;2.74;76.14;94827.22;10331009;28;20028;-75
2022/01/17 16:13:29;;;;;;;21.92;5.55;;;;;;;2.71;75.44;94818.94;10330847;28;20038;-74
2022/01/17 16:18:30;;;;;;;15.05;5.82;;;;;;;2.65;74.91;94839.19;10330630;28;20060;-70
2022/01/17 16:23:30;;;;;;;7.25;2.90;;;;;;;2.66;74.43;94826.72;10332203;28;20030;-76
2022/01/17 16:28:32;;;;;;;7.13;3.35;;;;;;;2.67;72.43;94807.13;10331850;28;20026;-71
2022/01/17 16:33:33;;;;;;;9.35;4.22;;;;;;;2.63;74.97;94798.78;10330667;28;20038;-74
2022/01/17 16:38:34;;;;;;;15.77;4.70;;;;;;;2.65;74.37;94793.25;10326423;28;20050;-77
2022/01/17 16:43:36;;;;;;;11.68;4.43;;;;;;;2.59;72.13;94794.16;10324048;28;20031;-78
2022/01/17 16:48:37;;;;;;;10.38;3.13;;;;;;;2.73;71.53;94804.41;10329634;28;20026;-74
2022/01/17 16:53:38;;;;;;;7.53;3.17;;;;;;;2.73;72.39;94809.72;10325114;28;20113;-71
2022/01/17 16:58:39;;;;;;;7.20;3.90;;;;;;;2.76;71.80;94813.75;10339659;28;20393;-75
2022/01/17 17:03:41;;;;;;;7.53;2.90;;;;;;;2.82;72.71;94804.06;10324396;28;20409;-70
2022/01/17 17:08:42;;;;;;;5.97;3.35;;;;;;;2.86;69.39;94803.44;10322910;28;20022;-74
2022/01/17 17:13:42;;;;;;;7.22;2.70;;;;;;;2.97;68.99;94809.00;10339295;28;20629;-75
2022/01/17 17:18:43;;;;;;;5.95;3.00;;;;;;;3.07;67.45;94788.06;10338478;28;20092;-75
2022/01/17 17:23:43;;;;;;;6.30;3.25;;;;;;;3.12;65.63;94798.81;10339553;28;20121;-79
2022/01/17 17:28:44;;;;;;;12.20;3.80;;;;;;;3.30;65.78;94792.63;10323654;28;20030;-79
2022/01/17 17:33:45;;;;;;;6.13;2.72;;;;;;;3.33;64.08;94794.03;10322039;28;20030;-74
2022/01/17 17:38:45;;;;;;;6.65;3.30;;;;;;;3.33;63.69;94804.66;10344682;28;20054;-77
2022/01/17 17:43:46;;;;;;;6.68;4.18;;;;;;;3.33;63.72;94813.44;10385205;28;20029;-72
2022/01/17 17:48:46;;;;;;;24.73;3.05;;;;;;;3.28;63.16;94820.47;10373887;28;20669;-73
2022/01/17 17:53:47;;;;;;;4.95;2.22;;;;;;;3.36;60.31;94814.84;10359306;28;20149;-75
2022/01/17 17:58:48;;;;;;;3.33;2.15;;;;;;;3.49;61.36;94814.66;10369450;28;20040;-78
2022/01/17 18:03:49;;;;;;;4.50;1.85;;;;;;;3.64;58.60;94826.69;10382313;23;20065;-75
2022/01/17 18:08:50;;;;;;;9.68;3.90;;;;;;;3.70;61.11;94828.47;10319564;28;20031;-76
2022/01/17 18:13:50;;;;;;;10.30;5.03;;;;;;;3.76;63.04;94816.91;10319736;28;20026;-77
2022/01/17 18:18:51;;;;;;;10.15;5.20;;;;;;;3.68;63.75;94814.56;10321618;28;20632;-79
2022/01/17 18:23:53;;;;;;;9.85;5.78;;;;;;;3.54;65.48;94809.44;10313676;28;20457;-78
2022/01/17 18:28:55;;;;;;;16.38;5.50;;;;;;;3.59;66.18;94790.97;10319273;28;20061;-75
2022/01/17 18:33:56;;;;;;;16.00;7.20;;;;;;;3.61;66.32;94788.09;10319835;28;20480;-77
2022/01/17 18:38:59;;;;;;;13.88;6.53;;;;;;;3.51;68.96;94779.88;10318927;28;20034;-76
2022/01/17 18:44:00;;;;;;;20.50;6.90;;;;;;;3.46;71.83;94779.75;10318809;28;20033;-73
2022/01/17 18:49:02;;;;;;;18.20;7.05;;;;;;;3.22;73.26;94775.19;10334135;28;20473;-77
2022/01/17 18:54:03;;;;;;;13.75;6.68;;;;;;;3.06;75.66;94789.09;10318403;28;20034;-75
2022/01/17 18:59:06;;;;;;;8.15;3.75;;;;;;;3.09;70.04;94775.38;10317919;28;20034;-71
2022/01/17 19:04:07;;;;;;;30.50;8.88;;;;;;;3.18;72.14;94768.72;10316338;28;20058;-75
2022/01/17 19:09:08;;;;;;;4.03;2.30;;;;;;;3.13;67.21;94731.38;10317500;28;20022;-72
2022/01/17 19:14:09;;;;;;;10.85;4.85;;;;;;;3.29;66.95;94753.81;10333654;28;20085;-71
2022/01/17 19:24:13;;;;;;;32.65;13.52;;;;;;;3.06;78.86;94738.66;10318210;28;20627;-72
2022/01/17 19:29:14;;;;;;;2.38;1.80;;;;;;;2.91;68.58;94755.78;10317136;28;20474;-76
2022/01/17 19:34:16;;;;;;;18.52;8.32;;;;;;;3.18;71.02;94774.03;10318326;28;20045;-72
2022/01/17 19:39:17;;;;;;;5.20;1.98;;;;;;;3.16;66.49;94794.66;10263717;28;20034;-72
2022/01/17 19:44:18;;;;;;;2.08;1.58;;;;;;;3.32;64.45;94789.75;10296713;28;20068;-72
2022/01/17 19:49:21;;;;;;;4.07;1.75;;;;;;;3.51;63.02;94791.31;10311541;28;20108;-75
2022/01/17 19:54:21;;;;;;;3.13;1.88;;;;;;;3.50;62.29;94791.53;10313624;28;20042;-72
2022/01/17 19:59:22;;;;;;;2.80;1.85;;;;;;;3.50;61.10;94792.38;10317099;28;20049;-72
2022/01/17 20:04:22;;;;;;;2.45;1.63;;;;;;;3.55;62.13;94816.38;10285840;28;20058;-77
2022/01/17 20:09:23;;;;;;;2.03;1.63;;;;;;;3.55;61.28;94819.06;10316616;28;20022;-77
2022/01/17 20:14:23;;;;;;;2.95;1.60;;;;;;;3.58;62.37;94807.97;10322255;28;20074;-76
2022/01/17 20:19:24;;;;;;;5.82;2.22;;;;;;;3.67;62.28;94813.78;10324223;28;20026;-76
2022/01/17 20:24:24;;;;;;;3.60;2.17;;;;;;;3.75;61.69;94825.91;10324717;28;20026;-75
2022/01/17 20:29:25;;;;;;;3.53;1.92;;;;;;;3.73;61.34;94812.84;10323808;28;20092;-77
2022/01/17 20:34:25;;;;;;;4.53;2.17;;;;;;;3.59;63.21;94827.38;10323172;28;20027;-81
2022/01/17 20:39:26;;;;;;;5.68;2.30;;;;;;;-146.07;100.00;70291.31;10323707;28;20081;-73
2022/01/17 20:44:26;;;;;;;4.70;2.33;;;;;;;-146.07;100.00;70291.31;10324373;28;20583;-75
2022/01/17 20:49:27;;;;;;;5.03;2.88;;;;;;;-146.07;100.00;70291.31;10297738;28;20030;-77
2022/01/17 20:54:27;;;;;;;6.35;2.65;;;;;;;-146.07;100.00;70291.31;10310426;28;20026;-80
2022/01/17 20:59:28;;;;;;;8.88;2.55;;;;;;;-146.07;100.00;70291.31;10324333;28;20049;-75
2022/01/17 21:04:30;;;;;;;7.38;2.60;;;;;;;-146.07;100.00;70291.31;10321908;28;20064;-76
2022/01/17 21:09:30;;;;;;;6.53;3.13;;;;;;;-146.07;100.00;70291.31;10324014;28;20057;-71
2022/01/17 21:14:31;;;;;;;4.13;2.45;;;;;;;-146.07;100.00;70291.31;10325018;28;20109;-71
2022/01/17 21:19:31;;;;;;;5.32;1.90;;;;;;;-146.07;100.00;70291.31;10322335;28;20467;-75
2022/01/17 21:24:32;;;;;;;4.13;2.08;;;;;;;-146.07;100.00;70291.31;10322313;28;20063;-79
2022/01/17 21:29:32;;;;;;;5.80;2.60;;;;;;;-146.07;100.00;70291.31;10324202;28;20110;-72
2022/01/17 21:34:33;;;;;;;5.60;3.17;;;;;;;-146.07;100.00;70291.31;10338673;28;20041;-79
2022/01/17 21:39:34;;;;;;;7.22;2.60;;;;;;;-146.07;100.00;70291.31;10323587;28;20139;-74
2022/01/17 21:44:34;;;;;;;7.10;3.03;;;;;;;-146.07;100.00;70291.31;10324104;28;20045;-74
2022/01/17 21:49:36;;;;;;;4.07;2.72;;;;;;;-146.07;100.00;70291.31;10322046;28;20042;-76
2022/01/17 21:54:37;;;;;;;3.83;2.67;;;;;;;-146.07;100.00;70291.31;10338264;28;20044;-75
2022/01/17 21:59:38;;;;;;;6.60;3.15;;;;;;;-146.07;100.00;70291.31;10321725;28;20076;-70
2022/01/17 22:04:38;;;;;;;8.63;4.28;;;;;;;-146.07;100.00;70291.31;10338614;28;20130;-71
2022/01/17 22:09:39;;;;;;;4.80;3.35;;;;;;;-146.07;100.00;70291.31;10322294;28;20084;-75
2022/01/17 22:19:47;;;;;;;11.60;3.20;;;;;;;-146.07;100.00;70291.31;10401776;28;20053;-75
2022/01/17 22:24:48;;;;;;;6.72;3.45;;;;;;;-146.07;100.00;70291.31;10386190;28;20021;-74
2022/01/17 22:29:48;;;;;;;4.72;3.08;;;;;;;-146.07;100.00;70291.31;10385729;28;20021;-75
2022/01/17 22:34:49;;;;;;;8.57;3.60;;;;;;;-146.07;100.00;70291.31;10402939;28;20403;-76
2022/01/17 22:39:49;;;;;;;5.80;3.33;;;;;;;-146.07;100.00;70291.31;10385953;28;20440;-75
2022/01/17 22:44:50;;;;;;;5.60;3.38;;;;;;;-146.07;100.00;70291.31;10369190;28;20032;-75
2022/01/17 22:49:50;;;;;;;6.60;2.70;;;;;;;-146.07;100.00;70291.31;10370054;28;20021;-76
2022/01/17 22:54:51;;;;;;;4.63;2.15;;;;;;;-146.07;100.00;70291.31;10385053;28;20032;-75
2022/01/17 22:59:51;;;;;;;6.32;2.50;;;;;;;-146.07;100.00;70291.31;10385813;28;20091;-74
2022/01/17 23:04:52;;;;;;;5.18;2.80;;;;;;;-146.07;100.00;70291.31;10385295;28;20593;-73
2022/01/17 23:09:52;;;;;;;3.42;2.17;;;;;;;-146.07;100.00;70291.31;10403050;28;20021;-74
2022/01/17 23:14:53;;;;;;;5.00;2.85;;;;;;;-146.07;100.00;70291.31;10384086;28;20061;-70
2022/01/17 23:19:54;;;;;;;3.30;2.28;;;;;;;-146.07;100.00;70291.31;10378891;28;20141;-71
2022/01/17 23:24:57;;;;;;;7.60;2.40;;;;;;;-146.07;100.00;70291.31;10360424;28;20057;-70
2022/01/17 23:30:00;;;;;;;2.47;1.80;;;;;;;-146.07;100.00;70291.31;10360234;28;20054;-70
2022/01/17 23:35:01;;;;;;;5.05;3.00;;;;;;;-146.07;100.00;70291.31;10359708;28;20030;-76
2022/01/17 23:40:03;;;;;;;2.40;1.80;;;;;;;-146.07;100.00;70291.31;10359969;28;20026;-75
2022/01/17 23:45:05;;;;;;;4.25;1.70;;;;;;;-146.07;100.00;70291.31;10359593;28;20120;-71
2022/01/17 23:50:06;;;;;;;3.17;1.65;;;;;;;-146.07;100.00;70291.31;10349483;28;20112;-75